sensor_id;sensor_type;location;lat;lon;timestamp;temperature;humidity
25302;DHT22;13243;50.888;4.724;2023-02-01T00:02:20;7.00;99.90
25302;DHT22;13243;50.888;4.724;2023-02-01T00:07:22;7.20;99.90
25302;DHT22;13243;50.888;4.724;2023-02-01T00:12:24;7.20;99.90
25302;DHT22;13243;50.888;4.724;2023-02-01T00:17:26;7.30;99.90
25302;DHT22;13243;50.888;4.724;2023-02-01T00:22:28;7.30;99.90
25302;DHT22;13243;50.888;4.724;2023-02-01T00:27:30;7.40;99.90
25302;DHT22;13243;50.888;4.724;2023-02-01T00:32:31;7.30;99.90
25302;DHT22;13243;50.888;4.724;2023-02-01T00:37:33;7.30;99.90
25302;DHT22;13243;50.888;4.724;2023-02-01T00:42:35;7.40;99.90
25302;DHT22;13243;50.888;4.724;2023-02-01T00:47:37;7.30;99.90
25302;DHT22;13243;50.888;4.724;2023-02-01T00:52:39;7.20;99.90
25302;DHT22;13243;50.888;4.724;2023-02-01T00:57:40;7.10;99.90
25302;DHT22;13243;50.888;4.724;2023-02-01T01:02:42;7.10;99.90
25302;DHT22;13243;50.888;4.724;2023-02-01T01:07:44;7.10;99.90
25302;DHT22;13243;50.888;4.724;2023-02-01T01:12:46;7.10;99.90
25302;DHT22;13243;50.888;4.724;2023-02-01T01:17:48;7.10;99.90
25302;DHT22;13243;50.888;4.724;2023-02-01T01:22:49;7.20;99.90
25302;DHT22;13243;50.888;4.724;2023-02-01T01:27:51;7.20;99.90
25302;DHT22;13243;50.888;4.724;2023-02-01T01:32:53;7.30;99.90
25302;DHT22;13243;50.888;4.724;2023-02-01T01:37:55;7.30;99.90
25302;DHT22;13243;50.888;4.724;2023-02-01T01:42:57;7.30;99.90
25302;DHT22;13243;50.888;4.724;2023-02-01T01:48:18;7.30;99.90
25302;DHT22;13243;50.888;4.724;2023-02-01T01:53:30;7.20;99.90
25302;DHT22;13243;50.888;4.724;2023-02-01T01:58:33;7.20;99.90
25302;DHT22;13243;50.888;4.724;2023-02-01T02:03:42;7.20;99.90
25302;DHT22;13243;50.888;4.724;2023-02-01T02:08:44;7.20;99.90
25302;DHT22;13243;50.888;4.724;2023-02-01T02:13:51;7.10;99.90
25302;DHT22;13243;50.888;4.724;2023-02-01T02:46:05;6.80;99.90
25302;DHT22;13243;50.888;4.724;2023-02-01T02:56:58;6.70;99.90
25302;DHT22;13243;50.888;4.724;2023-02-01T03:02:20;6.70;99.90
25302;DHT22;13243;50.888;4.724;2023-02-01T03:13:11;6.70;99.90
25302;DHT22;13243;50.888;4.724;2023-02-01T03:19:03;6.80;99.90
25302;DHT22;13243;50.888;4.724;2023-02-01T03:23:41;6.70;99.90
25302;DHT22;13243;50.888;4.724;2023-02-01T03:28:50;6.80;99.90
25302;DHT22;13243;50.888;4.724;2023-02-01T03:33:53;6.60;99.90
25302;DHT22;13243;50.888;4.724;2023-02-01T03:44:57;6.70;99.90
25302;DHT22;13243;50.888;4.724;2023-02-01T03:50:07;6.70;99.90
25302;DHT22;13243;50.888;4.724;2023-02-01T03:55:11;6.70;99.90
25302;DHT22;13243;50.888;4.724;2023-02-01T04:00:24;6.60;99.90
25302;DHT22;13243;50.888;4.724;2023-02-01T04:05:28;6.60;99.90
25302;DHT22;13243;50.888;4.724;2023-02-01T04:10:29;6.60;99.90
25302;DHT22;13243;50.888;4.724;2023-02-01T04:15:31;6.50;99.90
25302;DHT22;13243;50.888;4.724;2023-02-01T04:20:33;6.40;99.90
25302;DHT22;13243;50.888;4.724;2023-02-01T04:25:35;6.50;99.90
25302;DHT22;13243;50.888;4.724;2023-02-01T04:30:37;6.40;99.90
25302;DHT22;13243;50.888;4.724;2023-02-01T04:35:39;6.40;99.90
25302;DHT22;13243;50.888;4.724;2023-02-01T04:40:41;6.40;99.90
25302;DHT22;13243;50.888;4.724;2023-02-01T04:45:48;6.40;99.90
25302;DHT22;13243;50.888;4.724;2023-02-01T04:50:50;6.30;99.90
25302;DHT22;13243;50.888;4.724;2023-02-01T04:55:52;6.30;99.90
25302;DHT22;13243;50.888;4.724;2023-02-01T05:00:53;6.20;99.90
25302;DHT22;13243;50.888;4.724;2023-02-01T05:05:55;6.20;99.90
25302;DHT22;13243;50.888;4.724;2023-02-01T05:10:57;6.10;99.90
25302;DHT22;13243;50.888;4.724;2023-02-01T05:16:00;6.10;99.90
25302;DHT22;13243;50.888;4.724;2023-02-01T05:21:02;6.00;99.90
25302;DHT22;13243;50.888;4.724;2023-02-01T05:26:04;6.00;99.90
25302;DHT22;13243;50.888;4.724;2023-02-01T05:31:10;5.90;99.90
25302;DHT22;13243;50.888;4.724;2023-02-01T05:36:15;5.90;99.90
25302;DHT22;13243;50.888;4.724;2023-02-01T05:41:16;5.80;99.90
25302;DHT22;13243;50.888;4.724;2023-02-01T05:46:18;5.80;99.90
25302;DHT22;13243;50.888;4.724;2023-02-01T05:51:20;5.80;99.90
25302;DHT22;13243;50.888;4.724;2023-02-01T05:56:22;5.70;99.90
25302;DHT22;13243;50.888;4.724;2023-02-01T06:01:24;5.70;99.90
25302;DHT22;13243;50.888;4.724;2023-02-01T06:06:26;5.60;99.90
25302;DHT22;13243;50.888;4.724;2023-02-01T06:11:28;5.50;99.90
25302;DHT22;13243;50.888;4.724;2023-02-01T06:16:33;5.50;99.90
25302;DHT22;13243;50.888;4.724;2023-02-01T06:21:36;5.50;99.90
25302;DHT22;13243;50.888;4.724;2023-02-01T06:26:38;5.40;99.90
25302;DHT22;13243;50.888;4.724;2023-02-01T06:31:41;5.50;99.90
25302;DHT22;13243;50.888;4.724;2023-02-01T06:36:44;5.50;99.90
25302;DHT22;13243;50.888;4.724;2023-02-01T06:41:47;5.50;99.90
25302;DHT22;13243;50.888;4.724;2023-02-01T06:46:50;5.50;99.90
25302;DHT22;13243;50.888;4.724;2023-02-01T06:51:51;5.50;99.90
25302;DHT22;13243;50.888;4.724;2023-02-01T06:56:53;5.60;99.90
25302;DHT22;13243;50.888;4.724;2023-02-01T07:01:55;5.60;99.90
25302;DHT22;13243;50.888;4.724;2023-02-01T07:06:57;5.60;99.90
25302;DHT22;13243;50.888;4.724;2023-02-01T07:11:59;5.40;99.90
25302;DHT22;13243;50.888;4.724;2023-02-01T07:17:00;5.40;99.90
25302;DHT22;13243;50.888;4.724;2023-02-01T07:22:02;5.30;99.90
25302;DHT22;13243;50.888;4.724;2023-02-01T07:27:04;5.30;99.90
25302;DHT22;13243;50.888;4.724;2023-02-01T07:32:07;5.30;99.90
25302;DHT22;13243;50.888;4.724;2023-02-01T07:37:09;5.30;99.90
25302;DHT22;13243;50.888;4.724;2023-02-01T07:42:11;5.20;99.90
25302;DHT22;13243;50.888;4.724;2023-02-01T07:47:12;5.20;99.90
25302;DHT22;13243;50.888;4.724;2023-02-01T07:52:14;5.30;99.90
25302;DHT22;13243;50.888;4.724;2023-02-01T07:57:19;5.20;99.90
25302;DHT22;13243;50.888;4.724;2023-02-01T08:02:21;5.10;99.90
25302;DHT22;13243;50.888;4.724;2023-02-01T08:07:23;5.20;99.90
25302;DHT22;13243;50.888;4.724;2023-02-01T08:12:25;5.30;99.90
25302;DHT22;13243;50.888;4.724;2023-02-01T08:17:27;5.30;99.90
25302;DHT22;13243;50.888;4.724;2023-02-01T08:22:32;5.30;99.90
25302;DHT22;13243;50.888;4.724;2023-02-01T08:27:34;5.40;99.90
25302;DHT22;13243;50.888;4.724;2023-02-01T08:32:36;5.40;99.90
25302;DHT22;13243;50.888;4.724;2023-02-01T08:37:38;5.50;99.90
25302;DHT22;13243;50.888;4.724;2023-02-01T08:42:40;5.60;99.90
25302;DHT22;13243;50.888;4.724;2023-02-01T08:47:54;5.60;99.90
25302;DHT22;13243;50.888;4.724;2023-02-01T08:52:56;5.80;99.90
25302;DHT22;13243;50.888;4.724;2023-02-01T08:57:58;5.80;99.90
25302;DHT22;13243;50.888;4.724;2023-02-01T09:03:00;5.90;99.90
25302;DHT22;13243;50.888;4.724;2023-02-01T09:08:02;5.90;99.90
25302;DHT22;13243;50.888;4.724;2023-02-01T09:13:04;6.00;99.90
25302;DHT22;13243;50.888;4.724;2023-02-01T09:18:06;6.00;99.90
25302;DHT22;13243;50.888;4.724;2023-02-01T09:23:08;6.10;99.90
25302;DHT22;13243;50.888;4.724;2023-02-01T09:28:10;6.20;99.90
25302;DHT22;13243;50.888;4.724;2023-02-01T09:33:11;6.30;99.90
25302;DHT22;13243;50.888;4.724;2023-02-01T09:38:14;6.30;99.90
25302;DHT22;13243;50.888;4.724;2023-02-01T09:43:40;6.50;99.90
25302;DHT22;13243;50.888;4.724;2023-02-01T09:48:44;6.50;99.90
25302;DHT22;13243;50.888;4.724;2023-02-01T09:54:00;6.60;99.90
25302;DHT22;13243;50.888;4.724;2023-02-01T10:04:30;6.80;99.90
25302;DHT22;13243;50.888;4.724;2023-02-01T10:25:53;7.50;99.90
25302;DHT22;13243;50.888;4.724;2023-02-01T10:30:57;7.70;99.90
25302;DHT22;13243;50.888;4.724;2023-02-01T10:36:19;7.80;99.90
25302;DHT22;13243;50.888;4.724;2023-02-01T10:41:26;7.80;99.90
25302;DHT22;13243;50.888;4.724;2023-02-01T10:46:33;8.00;99.90
25302;DHT22;13243;50.888;4.724;2023-02-01T10:51:41;8.20;99.90
25302;DHT22;13243;50.888;4.724;2023-02-01T10:56:46;8.30;99.90
25302;DHT22;13243;50.888;4.724;2023-02-01T11:01:49;8.30;99.90
25302;DHT22;13243;50.888;4.724;2023-02-01T11:12:37;8.60;99.90
25302;DHT22;13243;50.888;4.724;2023-02-01T11:17:44;8.70;99.90
25302;DHT22;13243;50.888;4.724;2023-02-01T11:22:54;8.90;99.90
25302;DHT22;13243;50.888;4.724;2023-02-01T11:27:57;8.80;99.90
25302;DHT22;13243;50.888;4.724;2023-02-01T11:33:00;8.90;99.90
25302;DHT22;13243;50.888;4.724;2023-02-01T11:38:15;9.00;99.90
25302;DHT22;13243;50.888;4.724;2023-02-01T11:43:26;9.10;99.90
25302;DHT22;13243;50.888;4.724;2023-02-01T11:48:32;9.30;99.90
25302;DHT22;13243;50.888;4.724;2023-02-01T11:59:04;9.40;99.90
25302;DHT22;13243;50.888;4.724;2023-02-01T12:04:30;9.10;99.90
25302;DHT22;13243;50.888;4.724;2023-02-01T12:37:14;9.50;99.90
25302;DHT22;13243;50.888;4.724;2023-02-01T12:42:29;9.40;99.90
25302;DHT22;13243;50.888;4.724;2023-02-01T12:47:39;9.30;99.90
25302;DHT22;13243;50.888;4.724;2023-02-01T12:52:49;9.40;99.90
25302;DHT22;13243;50.888;4.724;2023-02-01T13:09:00;9.50;99.90
25302;DHT22;13243;50.888;4.724;2023-02-01T13:24:58;9.60;99.90
25302;DHT22;13243;50.888;4.724;2023-02-01T13:30:22;9.60;99.90
25302;DHT22;13243;50.888;4.724;2023-02-01T13:46:19;9.70;99.90
25302;DHT22;13243;50.888;4.724;2023-02-01T13:51:42;9.80;99.90
25302;DHT22;13243;50.888;4.724;2023-02-01T13:56:44;9.80;99.90
25302;DHT22;13243;50.888;4.724;2023-02-01T14:01:46;9.80;99.90
25302;DHT22;13243;50.888;4.724;2023-02-01T14:06:53;9.80;99.90
25302;DHT22;13243;50.888;4.724;2023-02-01T14:11:55;9.70;99.90
25302;DHT22;13243;50.888;4.724;2023-02-01T14:27:30;9.60;99.90
25302;DHT22;13243;50.888;4.724;2023-02-01T14:32:40;9.60;99.90
25302;DHT22;13243;50.888;4.724;2023-02-01T14:37:52;9.60;99.90
25302;DHT22;13243;50.888;4.724;2023-02-01T14:42:55;9.60;99.90
25302;DHT22;13243;50.888;4.724;2023-02-01T14:53:12;9.50;99.90
25302;DHT22;13243;50.888;4.724;2023-02-01T14:58:45;9.50;99.90
25302;DHT22;13243;50.888;4.724;2023-02-01T15:03:53;9.40;99.90
25302;DHT22;13243;50.888;4.724;2023-02-01T15:09:01;9.40;99.90
25302;DHT22;13243;50.888;4.724;2023-02-01T15:14:13;9.40;99.90
25302;DHT22;13243;50.888;4.724;2023-02-01T15:19:15;9.40;99.90
25302;DHT22;13243;50.888;4.724;2023-02-01T15:24:28;9.20;99.90
25302;DHT22;13243;50.888;4.724;2023-02-01T15:29:31;9.20;99.90
25302;DHT22;13243;50.888;4.724;2023-02-01T15:34:49;9.10;99.90
25302;DHT22;13243;50.888;4.724;2023-02-01T15:45:20;9.10;99.90
25302;DHT22;13243;50.888;4.724;2023-02-01T15:50:23;9.10;99.90
25302;DHT22;13243;50.888;4.724;2023-02-01T16:00:44;9.00;99.90
25302;DHT22;13243;50.888;4.724;2023-02-01T16:05:58;9.00;99.90
25302;DHT22;13243;50.888;4.724;2023-02-01T16:11:30;9.00;99.90
25302;DHT22;13243;50.888;4.724;2023-02-01T16:16:32;8.90;99.90
25302;DHT22;13243;50.888;4.724;2023-02-01T16:21:34;8.90;99.90
25302;DHT22;13243;50.888;4.724;2023-02-01T16:26:36;8.90;99.90
25302;DHT22;13243;50.888;4.724;2023-02-01T16:31:39;8.90;99.90
25302;DHT22;13243;50.888;4.724;2023-02-01T16:36:41;8.90;99.90
25302;DHT22;13243;50.888;4.724;2023-02-01T16:41:43;8.80;99.90
25302;DHT22;13243;50.888;4.724;2023-02-01T16:46:48;8.80;99.90
25302;DHT22;13243;50.888;4.724;2023-02-01T16:51:51;8.80;99.90
25302;DHT22;13243;50.888;4.724;2023-02-01T16:56:56;8.80;99.90
25302;DHT22;13243;50.888;4.724;2023-02-01T17:01:58;8.70;99.90
25302;DHT22;13243;50.888;4.724;2023-02-01T17:07:03;8.80;99.90
25302;DHT22;13243;50.888;4.724;2023-02-01T17:12:25;8.80;99.90
25302;DHT22;13243;50.888;4.724;2023-02-01T17:17:32;8.70;99.90
25302;DHT22;13243;50.888;4.724;2023-02-01T17:22:39;8.80;99.90
25302;DHT22;13243;50.888;4.724;2023-02-01T17:27:41;8.80;99.90
25302;DHT22;13243;50.888;4.724;2023-02-01T17:32:43;8.70;99.90
25302;DHT22;13243;50.888;4.724;2023-02-01T17:37:46;8.70;99.90
25302;DHT22;13243;50.888;4.724;2023-02-01T17:42:48;8.70;99.90
25302;DHT22;13243;50.888;4.724;2023-02-01T17:47:50;8.70;99.90
25302;DHT22;13243;50.888;4.724;2023-02-01T17:52:53;8.60;99.90
25302;DHT22;13243;50.888;4.724;2023-02-01T17:57:55;8.70;99.90
25302;DHT22;13243;50.888;4.724;2023-02-01T18:02:57;8.70;99.90
25302;DHT22;13243;50.888;4.724;2023-02-01T18:07:58;8.70;99.90
25302;DHT22;13243;50.888;4.724;2023-02-01T18:13:02;8.70;99.90
25302;DHT22;13243;50.888;4.724;2023-02-01T18:18:04;8.70;99.90
25302;DHT22;13243;50.888;4.724;2023-02-01T18:23:11;8.70;99.90
25302;DHT22;13243;50.888;4.724;2023-02-01T18:28:18;8.60;99.90
25302;DHT22;13243;50.888;4.724;2023-02-01T18:33:20;8.60;99.90
25302;DHT22;13243;50.888;4.724;2023-02-01T18:38:22;8.60;99.90
25302;DHT22;13243;50.888;4.724;2023-02-01T18:43:24;8.60;99.90
25302;DHT22;13243;50.888;4.724;2023-02-01T18:48:27;8.60;99.90
25302;DHT22;13243;50.888;4.724;2023-02-01T18:53:29;8.50;99.90
25302;DHT22;13243;50.888;4.724;2023-02-01T18:58:31;8.50;99.90
25302;DHT22;13243;50.888;4.724;2023-02-01T19:03:33;8.50;99.90
25302;DHT22;13243;50.888;4.724;2023-02-01T19:08:46;8.60;99.90
25302;DHT22;13243;50.888;4.724;2023-02-01T19:13:49;8.60;99.90
25302;DHT22;13243;50.888;4.724;2023-02-01T19:18:52;8.60;99.90
25302;DHT22;13243;50.888;4.724;2023-02-01T19:23:54;8.60;99.90
25302;DHT22;13243;50.888;4.724;2023-02-01T19:28:57;8.60;99.90
25302;DHT22;13243;50.888;4.724;2023-02-01T19:34:00;8.60;99.90
25302;DHT22;13243;50.888;4.724;2023-02-01T19:39:02;8.60;99.90
25302;DHT22;13243;50.888;4.724;2023-02-01T19:44:05;8.50;99.90
25302;DHT22;13243;50.888;4.724;2023-02-01T19:49:08;8.50;99.90
25302;DHT22;13243;50.888;4.724;2023-02-01T19:54:13;8.50;99.90
25302;DHT22;13243;50.888;4.724;2023-02-01T19:59:16;8.50;99.90
25302;DHT22;13243;50.888;4.724;2023-02-01T20:04:20;8.50;99.90
25302;DHT22;13243;50.888;4.724;2023-02-01T20:09:27;8.50;99.90
25302;DHT22;13243;50.888;4.724;2023-02-01T20:14:32;8.40;99.90
25302;DHT22;13243;50.888;4.724;2023-02-01T20:19:37;8.50;99.90
25302;DHT22;13243;50.888;4.724;2023-02-01T20:24:40;8.40;99.90
25302;DHT22;13243;50.888;4.724;2023-02-01T20:29:42;8.50;99.90
25302;DHT22;13243;50.888;4.724;2023-02-01T20:34:44;8.50;99.90
25302;DHT22;13243;50.888;4.724;2023-02-01T20:39:46;8.50;99.90
25302;DHT22;13243;50.888;4.724;2023-02-01T20:44:48;8.40;99.90
25302;DHT22;13243;50.888;4.724;2023-02-01T20:49:50;8.50;99.90
25302;DHT22;13243;50.888;4.724;2023-02-01T20:54:51;8.50;99.90
25302;DHT22;13243;50.888;4.724;2023-02-01T20:59:53;8.60;99.90
25302;DHT22;13243;50.888;4.724;2023-02-01T21:04:55;8.60;99.90
25302;DHT22;13243;50.888;4.724;2023-02-01T21:09:57;8.60;99.90
25302;DHT22;13243;50.888;4.724;2023-02-01T21:14:59;8.60;99.90
25302;DHT22;13243;50.888;4.724;2023-02-01T21:20:01;8.70;99.90
25302;DHT22;13243;50.888;4.724;2023-02-01T21:25:03;8.60;99.90
25302;DHT22;13243;50.888;4.724;2023-02-01T21:30:05;8.60;99.90
25302;DHT22;13243;50.888;4.724;2023-02-01T21:35:10;8.60;99.90
25302;DHT22;13243;50.888;4.724;2023-02-01T21:40:12;8.60;99.90
25302;DHT22;13243;50.888;4.724;2023-02-01T21:45:16;8.60;99.90
25302;DHT22;13243;50.888;4.724;2023-02-01T21:50:19;8.60;99.90
25302;DHT22;13243;50.888;4.724;2023-02-01T21:55:22;8.60;99.90
25302;DHT22;13243;50.888;4.724;2023-02-01T22:00:24;8.60;99.90
25302;DHT22;13243;50.888;4.724;2023-02-01T22:05:26;8.60;99.90
25302;DHT22;13243;50.888;4.724;2023-02-01T22:10:28;8.60;99.90
25302;DHT22;13243;50.888;4.724;2023-02-01T22:15:30;8.60;99.90
25302;DHT22;13243;50.888;4.724;2023-02-01T22:20:32;8.60;99.90
25302;DHT22;13243;50.888;4.724;2023-02-01T22:25:33;8.50;99.90
25302;DHT22;13243;50.888;4.724;2023-02-01T22:30:36;8.60;99.90
25302;DHT22;13243;50.888;4.724;2023-02-01T22:35:37;8.60;99.90
25302;DHT22;13243;50.888;4.724;2023-02-01T22:40:39;8.60;99.90
25302;DHT22;13243;50.888;4.724;2023-02-01T22:45:41;8.50;99.90
25302;DHT22;13243;50.888;4.724;2023-02-01T22:50:43;8.50;99.90
25302;DHT22;13243;50.888;4.724;2023-02-01T22:55:45;8.50;99.90
25302;DHT22;13243;50.888;4.724;2023-02-01T23:00:47;8.50;99.90
25302;DHT22;13243;50.888;4.724;2023-02-01T23:05:49;8.50;99.90
25302;DHT22;13243;50.888;4.724;2023-02-01T23:10:58;8.50;99.90
25302;DHT22;13243;50.888;4.724;2023-02-01T23:16:09;8.50;99.90
25302;DHT22;13243;50.888;4.724;2023-02-01T23:21:19;8.50;99.90
25302;DHT22;13243;50.888;4.724;2023-02-01T23:26:23;8.50;99.90
25302;DHT22;13243;50.888;4.724;2023-02-01T23:31:28;8.50;99.90
25302;DHT22;13243;50.888;4.724;2023-02-01T23:36:33;8.50;99.90
25302;DHT22;13243;50.888;4.724;2023-02-01T23:41:35;8.60;99.90
25302;DHT22;13243;50.888;4.724;2023-02-01T23:46:41;8.50;99.90
25302;DHT22;13243;50.888;4.724;2023-02-01T23:51:48;8.50;99.90
25302;DHT22;13243;50.888;4.724;2023-02-01T23:56:53;8.50;99.90
